sensor_id;sensor_type;location;lat;lon;timestamp;P1;durP1;ratioP1;P2;durP2;ratioP2
58756;SDS011;44527;47.460;19.016;2023-03-21T00:02:09;9.45;;;5.00;;
58756;SDS011;44527;47.460;19.016;2023-03-21T00:05:11;9.43;;;5.37;;
58756;SDS011;44527;47.460;19.016;2023-03-21T00:08:34;10.23;;;5.55;;
58756;SDS011;44527;47.460;19.016;2023-03-21T00:11:36;13.57;;;4.82;;
58756;SDS011;44527;47.460;19.016;2023-03-21T00:14:38;8.35;;;5.00;;
58756;SDS011;44527;47.460;19.016;2023-03-21T00:17:41;8.35;;;4.90;;
58756;SDS011;44527;47.460;19.016;2023-03-21T00:20:54;6.93;;;5.15;;
58756;SDS011;44527;47.460;19.016;2023-03-21T00:24:21;10.63;;;5.07;;
58756;SDS011;44527;47.460;19.016;2023-03-21T00:27:24;9.70;;;5.28;;
58756;SDS011;44527;47.460;19.016;2023-03-21T00:30:46;13.25;;;6.07;;
58756;SDS011;44527;47.460;19.016;2023-03-21T00:33:49;8.98;;;5.18;;
58756;SDS011;44527;47.460;19.016;2023-03-21T00:36:52;9.00;;;4.97;;
58756;SDS011;44527;47.460;19.016;2023-03-21T00:39:54;8.60;;;5.30;;
58756;SDS011;44527;47.460;19.016;2023-03-21T00:42:58;7.80;;;5.10;;
58756;SDS011;44527;47.460;19.016;2023-03-21T00:46:00;7.53;;;5.00;;
58756;SDS011;44527;47.460;19.016;2023-03-21T00:49:02;8.65;;;5.90;;
58756;SDS011;44527;47.460;19.016;2023-03-21T00:52:06;9.38;;;5.75;;
58756;SDS011;44527;47.460;19.016;2023-03-21T00:55:21;13.73;;;5.75;;
58756;SDS011;44527;47.460;19.016;2023-03-21T00:58:23;9.27;;;6.07;;
58756;SDS011;44527;47.460;19.016;2023-03-21T01:01:27;10.98;;;6.15;;
58756;SDS011;44527;47.460;19.016;2023-03-21T01:04:33;10.98;;;6.00;;
58756;SDS011;44527;47.460;19.016;2023-03-21T01:07:35;8.18;;;5.70;;
58756;SDS011;44527;47.460;19.016;2023-03-21T01:10:40;10.48;;;6.25;;
58756;SDS011;44527;47.460;19.016;2023-03-21T01:13:44;11.38;;;6.82;;
58756;SDS011;44527;47.460;19.016;2023-03-21T01:16:57;8.90;;;6.18;;
58756;SDS011;44527;47.460;19.016;2023-03-21T01:19:59;17.90;;;6.62;;
58756;SDS011;44527;47.460;19.016;2023-03-21T01:23:02;10.18;;;6.55;;
58756;SDS011;44527;47.460;19.016;2023-03-21T01:26:04;12.43;;;6.62;;
58756;SDS011;44527;47.460;19.016;2023-03-21T01:29:07;11.75;;;6.15;;
58756;SDS011;44527;47.460;19.016;2023-03-21T01:32:10;14.48;;;6.97;;
58756;SDS011;44527;47.460;19.016;2023-03-21T01:35:15;13.38;;;6.28;;
58756;SDS011;44527;47.460;19.016;2023-03-21T01:38:17;12.30;;;6.90;;
58756;SDS011;44527;47.460;19.016;2023-03-21T01:44:57;11.23;;;6.75;;
58756;SDS011;44527;47.460;19.016;2023-03-21T01:48:07;8.55;;;6.18;;
58756;SDS011;44527;47.460;19.016;2023-03-21T01:51:10;11.40;;;6.40;;
58756;SDS011;44527;47.460;19.016;2023-03-21T01:54:20;12.27;;;6.10;;
58756;SDS011;44527;47.460;19.016;2023-03-21T01:57:29;9.93;;;6.20;;
58756;SDS011;44527;47.460;19.016;2023-03-21T02:00:50;9.93;;;6.15;;
58756;SDS011;44527;47.460;19.016;2023-03-21T02:03:53;11.30;;;6.43;;
58756;SDS011;44527;47.460;19.016;2023-03-21T02:07:05;10.32;;;6.65;;
58756;SDS011;44527;47.460;19.016;2023-03-21T02:10:13;12.32;;;6.93;;
58756;SDS011;44527;47.460;19.016;2023-03-21T02:13:18;10.52;;;6.50;;
58756;SDS011;44527;47.460;19.016;2023-03-21T02:16:27;10.10;;;6.22;;
58756;SDS011;44527;47.460;19.016;2023-03-21T02:26:58;10.07;;;6.28;;
58756;SDS011;44527;47.460;19.016;2023-03-21T02:37:22;9.55;;;5.62;;
58756;SDS011;44527;47.460;19.016;2023-03-21T02:40:44;10.52;;;6.47;;
58756;SDS011;44527;47.460;19.016;2023-03-21T02:50:45;6.72;;;4.90;;
58756;SDS011;44527;47.460;19.016;2023-03-21T02:53:56;7.45;;;5.10;;
58756;SDS011;44527;47.460;19.016;2023-03-21T02:57:24;8.57;;;5.70;;
58756;SDS011;44527;47.460;19.016;2023-03-21T03:00:41;8.15;;;5.50;;
58756;SDS011;44527;47.460;19.016;2023-03-21T03:03:46;8.10;;;4.70;;
58756;SDS011;44527;47.460;19.016;2023-03-21T03:13:20;8.05;;;4.95;;
58756;SDS011;44527;47.460;19.016;2023-03-21T03:27:12;9.77;;;5.03;;
58756;SDS011;44527;47.460;19.016;2023-03-21T03:30:19;15.18;;;4.85;;
58756;SDS011;44527;47.460;19.016;2023-03-21T03:33:25;5.95;;;4.12;;
58756;SDS011;44527;47.460;19.016;2023-03-21T03:36:29;7.12;;;4.28;;
58756;SDS011;44527;47.460;19.016;2023-03-21T03:39:39;8.60;;;4.60;;
58756;SDS011;44527;47.460;19.016;2023-03-21T03:42:53;6.87;;;4.05;;
58756;SDS011;44527;47.460;19.016;2023-03-21T03:46:05;6.57;;;4.25;;
58756;SDS011;44527;47.460;19.016;2023-03-21T03:49:19;8.10;;;4.00;;
58756;SDS011;44527;47.460;19.016;2023-03-21T03:52:32;7.75;;;4.12;;
58756;SDS011;44527;47.460;19.016;2023-03-21T03:55:47;6.70;;;3.97;;
58756;SDS011;44527;47.460;19.016;2023-03-21T03:58:53;8.98;;;4.60;;
58756;SDS011;44527;47.460;19.016;2023-03-21T04:01:58;5.47;;;3.87;;
58756;SDS011;44527;47.460;19.016;2023-03-21T04:05:01;8.35;;;4.22;;
58756;SDS011;44527;47.460;19.016;2023-03-21T04:08:05;6.05;;;4.65;;
58756;SDS011;44527;47.460;19.016;2023-03-21T04:11:09;7.07;;;3.72;;
58756;SDS011;44527;47.460;19.016;2023-03-21T04:14:14;8.95;;;3.72;;
58756;SDS011;44527;47.460;19.016;2023-03-21T04:17:17;8.80;;;4.50;;
58756;SDS011;44527;47.460;19.016;2023-03-21T04:20:21;6.50;;;3.70;;
58756;SDS011;44527;47.460;19.016;2023-03-21T04:23:38;9.65;;;3.87;;
58756;SDS011;44527;47.460;19.016;2023-03-21T04:26:42;7.05;;;3.75;;
58756;SDS011;44527;47.460;19.016;2023-03-21T04:29:46;6.15;;;3.90;;
58756;SDS011;44527;47.460;19.016;2023-03-21T04:32:50;9.48;;;3.62;;
58756;SDS011;44527;47.460;19.016;2023-03-21T04:35:59;6.00;;;3.65;;
58756;SDS011;44527;47.460;19.016;2023-03-21T04:39:01;11.57;;;4.25;;
58756;SDS011;44527;47.460;19.016;2023-03-21T04:42:05;7.43;;;3.80;;
58756;SDS011;44527;47.460;19.016;2023-03-21T04:45:07;8.32;;;4.00;;
58756;SDS011;44527;47.460;19.016;2023-03-21T04:48:10;9.60;;;4.82;;
58756;SDS011;44527;47.460;19.016;2023-03-21T04:51:17;5.87;;;3.55;;
58756;SDS011;44527;47.460;19.016;2023-03-21T04:54:20;8.95;;;4.32;;
58756;SDS011;44527;47.460;19.016;2023-03-21T04:57:23;9.00;;;3.58;;
58756;SDS011;44527;47.460;19.016;2023-03-21T05:00:26;6.82;;;3.42;;
58756;SDS011;44527;47.460;19.016;2023-03-21T05:03:28;8.98;;;3.85;;
58756;SDS011;44527;47.460;19.016;2023-03-21T05:06:36;6.07;;;4.00;;
58756;SDS011;44527;47.460;19.016;2023-03-21T05:09:38;7.60;;;4.05;;
58756;SDS011;44527;47.460;19.016;2023-03-21T05:12:40;6.10;;;3.83;;
58756;SDS011;44527;47.460;19.016;2023-03-21T05:15:43;6.95;;;4.03;;
58756;SDS011;44527;47.460;19.016;2023-03-21T05:18:46;6.53;;;3.90;;
58756;SDS011;44527;47.460;19.016;2023-03-21T05:21:52;7.68;;;3.92;;
58756;SDS011;44527;47.460;19.016;2023-03-21T05:24:54;7.20;;;4.22;;
58756;SDS011;44527;47.460;19.016;2023-03-21T05:28:00;8.45;;;4.07;;
58756;SDS011;44527;47.460;19.016;2023-03-21T05:31:04;7.97;;;4.97;;
58756;SDS011;44527;47.460;19.016;2023-03-21T05:34:07;12.32;;;5.18;;
58756;SDS011;44527;47.460;19.016;2023-03-21T05:37:10;10.27;;;4.65;;
58756;SDS011;44527;47.460;19.016;2023-03-21T05:40:14;11.32;;;4.60;;
58756;SDS011;44527;47.460;19.016;2023-03-21T05:43:17;10.23;;;4.62;;
58756;SDS011;44527;47.460;19.016;2023-03-21T05:46:23;5.78;;;3.92;;
58756;SDS011;44527;47.460;19.016;2023-03-21T05:49:26;5.75;;;3.87;;
58756;SDS011;44527;47.460;19.016;2023-03-21T05:52:30;5.30;;;3.83;;
58756;SDS011;44527;47.460;19.016;2023-03-21T05:55:32;18.58;;;4.65;;
58756;SDS011;44527;47.460;19.016;2023-03-21T05:58:35;24.00;;;5.03;;
58756;SDS011;44527;47.460;19.016;2023-03-21T06:01:38;52.20;;;6.60;;
58756;SDS011;44527;47.460;19.016;2023-03-21T06:04:41;17.45;;;4.15;;
58756;SDS011;44527;47.460;19.016;2023-03-21T06:07:44;14.63;;;3.92;;
58756;SDS011;44527;47.460;19.016;2023-03-21T06:10:47;5.55;;;3.45;;
58756;SDS011;44527;47.460;19.016;2023-03-21T06:13:50;7.40;;;3.75;;
58756;SDS011;44527;47.460;19.016;2023-03-21T06:16:55;6.85;;;4.00;;
58756;SDS011;44527;47.460;19.016;2023-03-21T06:19:58;10.85;;;4.43;;
58756;SDS011;44527;47.460;19.016;2023-03-21T06:23:06;11.07;;;4.05;;
58756;SDS011;44527;47.460;19.016;2023-03-21T06:26:09;5.82;;;3.83;;
58756;SDS011;44527;47.460;19.016;2023-03-21T06:29:12;8.00;;;3.70;;
58756;SDS011;44527;47.460;19.016;2023-03-21T06:32:16;8.52;;;4.15;;
58756;SDS011;44527;47.460;19.016;2023-03-21T06:35:19;7.30;;;4.22;;
58756;SDS011;44527;47.460;19.016;2023-03-21T06:38:22;6.62;;;3.67;;
58756;SDS011;44527;47.460;19.016;2023-03-21T06:41:25;9.85;;;4.00;;
58756;SDS011;44527;47.460;19.016;2023-03-21T06:44:29;9.00;;;4.22;;
58756;SDS011;44527;47.460;19.016;2023-03-21T06:47:32;6.87;;;4.22;;
58756;SDS011;44527;47.460;19.016;2023-03-21T06:50:35;5.55;;;4.00;;
58756;SDS011;44527;47.460;19.016;2023-03-21T06:53:39;7.05;;;4.20;;
58756;SDS011;44527;47.460;19.016;2023-03-21T06:56:43;13.68;;;4.87;;
58756;SDS011;44527;47.460;19.016;2023-03-21T06:59:47;5.72;;;4.12;;
58756;SDS011;44527;47.460;19.016;2023-03-21T07:02:49;6.97;;;4.40;;
58756;SDS011;44527;47.460;19.016;2023-03-21T07:05:53;8.60;;;4.30;;
58756;SDS011;44527;47.460;19.016;2023-03-21T07:08:57;9.60;;;4.68;;
58756;SDS011;44527;47.460;19.016;2023-03-21T07:12:00;7.85;;;4.50;;
58756;SDS011;44527;47.460;19.016;2023-03-21T07:15:04;10.38;;;3.97;;
58756;SDS011;44527;47.460;19.016;2023-03-21T07:18:09;6.62;;;4.30;;
58756;SDS011;44527;47.460;19.016;2023-03-21T07:21:11;7.90;;;4.22;;
58756;SDS011;44527;47.460;19.016;2023-03-21T07:24:15;8.98;;;4.32;;
58756;SDS011;44527;47.460;19.016;2023-03-21T07:27:17;7.47;;;3.67;;
58756;SDS011;44527;47.460;19.016;2023-03-21T07:30:20;4.57;;;3.45;;
58756;SDS011;44527;47.460;19.016;2023-03-21T07:33:23;8.02;;;3.50;;
58756;SDS011;44527;47.460;19.016;2023-03-21T07:36:27;5.62;;;3.60;;
58756;SDS011;44527;47.460;19.016;2023-03-21T07:39:30;5.40;;;3.53;;
58756;SDS011;44527;47.460;19.016;2023-03-21T07:42:34;8.75;;;2.87;;
58756;SDS011;44527;47.460;19.016;2023-03-21T07:45:37;4.97;;;3.28;;
58756;SDS011;44527;47.460;19.016;2023-03-21T07:48:41;5.43;;;3.25;;
58756;SDS011;44527;47.460;19.016;2023-03-21T07:51:43;5.35;;;3.47;;
58756;SDS011;44527;47.460;19.016;2023-03-21T07:54:46;11.52;;;5.25;;
58756;SDS011;44527;47.460;19.016;2023-03-21T07:57:48;4.95;;;3.12;;
58756;SDS011;44527;47.460;19.016;2023-03-21T08:00:53;5.50;;;3.30;;
58756;SDS011;44527;47.460;19.016;2023-03-21T08:03:57;5.10;;;3.37;;
58756;SDS011;44527;47.460;19.016;2023-03-21T08:06:59;5.45;;;3.28;;
58756;SDS011;44527;47.460;19.016;2023-03-21T08:10:03;6.37;;;3.17;;
58756;SDS011;44527;47.460;19.016;2023-03-21T08:13:06;8.98;;;3.60;;
58756;SDS011;44527;47.460;19.016;2023-03-21T08:16:09;6.18;;;3.67;;
58756;SDS011;44527;47.460;19.016;2023-03-21T08:19:11;8.82;;;4.07;;
58756;SDS011;44527;47.460;19.016;2023-03-21T08:22:14;4.70;;;3.28;;
58756;SDS011;44527;47.460;19.016;2023-03-21T08:25:18;7.28;;;3.22;;
58756;SDS011;44527;47.460;19.016;2023-03-21T08:28:23;7.18;;;3.30;;
58756;SDS011;44527;47.460;19.016;2023-03-21T08:31:25;4.00;;;2.00;;
58756;SDS011;44527;47.460;19.016;2023-03-21T08:34:29;3.78;;;2.33;;
58756;SDS011;44527;47.460;19.016;2023-03-21T08:37:31;3.78;;;2.97;;
58756;SDS011;44527;47.460;19.016;2023-03-21T08:40:37;6.68;;;2.65;;
58756;SDS011;44527;47.460;19.016;2023-03-21T08:43:40;3.42;;;2.37;;
58756;SDS011;44527;47.460;19.016;2023-03-21T08:46:43;4.57;;;2.22;;
58756;SDS011;44527;47.460;19.016;2023-03-21T08:49:45;4.28;;;1.60;;
58756;SDS011;44527;47.460;19.016;2023-03-21T08:52:48;7.40;;;1.65;;
58756;SDS011;44527;47.460;19.016;2023-03-21T08:55:50;2.42;;;1.62;;
58756;SDS011;44527;47.460;19.016;2023-03-21T08:58:53;3.10;;;1.90;;
58756;SDS011;44527;47.460;19.016;2023-03-21T09:01:55;3.97;;;2.03;;
58756;SDS011;44527;47.460;19.016;2023-03-21T09:04:58;3.90;;;2.03;;
58756;SDS011;44527;47.460;19.016;2023-03-21T09:08:01;4.55;;;1.98;;
58756;SDS011;44527;47.460;19.016;2023-03-21T09:11:04;3.30;;;2.20;;
58756;SDS011;44527;47.460;19.016;2023-03-21T09:14:07;3.15;;;2.03;;
58756;SDS011;44527;47.460;19.016;2023-03-21T09:17:10;6.03;;;1.85;;
58756;SDS011;44527;47.460;19.016;2023-03-21T09:20:12;5.65;;;1.80;;
58756;SDS011;44527;47.460;19.016;2023-03-21T09:23:19;3.08;;;2.05;;
58756;SDS011;44527;47.460;19.016;2023-03-21T09:26:22;2.20;;;1.40;;
58756;SDS011;44527;47.460;19.016;2023-03-21T09:29:26;1.73;;;1.20;;
58756;SDS011;44527;47.460;19.016;2023-03-21T09:32:28;1.30;;;1.17;;
58756;SDS011;44527;47.460;19.016;2023-03-21T09:35:31;2.55;;;1.58;;
58756;SDS011;44527;47.460;19.016;2023-03-21T09:38:34;2.67;;;1.10;;
58756;SDS011;44527;47.460;19.016;2023-03-21T09:45:15;3.87;;;1.42;;
58756;SDS011;44527;47.460;19.016;2023-03-21T09:48:27;2.67;;;1.70;;
58756;SDS011;44527;47.460;19.016;2023-03-21T09:52:00;7.12;;;2.10;;
58756;SDS011;44527;47.460;19.016;2023-03-21T09:55:18;2.87;;;1.70;;
58756;SDS011;44527;47.460;19.016;2023-03-21T10:01:39;3.00;;;1.33;;
58756;SDS011;44527;47.460;19.016;2023-03-21T10:04:46;1.85;;;1.10;;
58756;SDS011;44527;47.460;19.016;2023-03-21T10:08:01;3.37;;;1.17;;
58756;SDS011;44527;47.460;19.016;2023-03-21T10:14:51;1.67;;;1.08;;
58756;SDS011;44527;47.460;19.016;2023-03-21T10:18:00;2.28;;;1.27;;
58756;SDS011;44527;47.460;19.016;2023-03-21T10:21:05;1.87;;;1.20;;
58756;SDS011;44527;47.460;19.016;2023-03-21T10:24:13;1.58;;;1.20;;
58756;SDS011;44527;47.460;19.016;2023-03-21T10:27:18;4.00;;;1.30;;
58756;SDS011;44527;47.460;19.016;2023-03-21T10:30:29;2.22;;;1.50;;
58756;SDS011;44527;47.460;19.016;2023-03-21T10:33:38;4.75;;;1.12;;
58756;SDS011;44527;47.460;19.016;2023-03-21T10:36:45;1.52;;;1.10;;
58756;SDS011;44527;47.460;19.016;2023-03-21T10:39:48;1.52;;;1.00;;
58756;SDS011;44527;47.460;19.016;2023-03-21T10:42:56;2.53;;;1.37;;
58756;SDS011;44527;47.460;19.016;2023-03-21T10:46:18;4.12;;;1.52;;
58756;SDS011;44527;47.460;19.016;2023-03-21T10:49:24;2.67;;;1.42;;
58756;SDS011;44527;47.460;19.016;2023-03-21T10:52:33;3.83;;;1.87;;
58756;SDS011;44527;47.460;19.016;2023-03-21T10:55:39;2.40;;;1.70;;
58756;SDS011;44527;47.460;19.016;2023-03-21T10:58:43;3.60;;;1.48;;
58756;SDS011;44527;47.460;19.016;2023-03-21T11:01:49;3.58;;;2.00;;
58756;SDS011;44527;47.460;19.016;2023-03-21T11:04:53;2.65;;;1.85;;
58756;SDS011;44527;47.460;19.016;2023-03-21T11:07:57;4.00;;;1.70;;
58756;SDS011;44527;47.460;19.016;2023-03-21T11:11:07;2.30;;;1.65;;
58756;SDS011;44527;47.460;19.016;2023-03-21T11:14:25;3.72;;;2.37;;
58756;SDS011;44527;47.460;19.016;2023-03-21T11:17:34;8.90;;;1.85;;
58756;SDS011;44527;47.460;19.016;2023-03-21T11:20:40;3.60;;;2.10;;
58756;SDS011;44527;47.460;19.016;2023-03-21T11:23:49;9.65;;;2.83;;
58756;SDS011;44527;47.460;19.016;2023-03-21T11:26:53;5.32;;;1.30;;
58756;SDS011;44527;47.460;19.016;2023-03-21T11:29:58;4.10;;;1.17;;
58756;SDS011;44527;47.460;19.016;2023-03-21T11:33:03;2.25;;;1.00;;
58756;SDS011;44527;47.460;19.016;2023-03-21T11:39:35;3.75;;;1.33;;
58756;SDS011;44527;47.460;19.016;2023-03-21T11:42:41;1.83;;;0.98;;
58756;SDS011;44527;47.460;19.016;2023-03-21T11:45:55;7.47;;;1.52;;
58756;SDS011;44527;47.460;19.016;2023-03-21T11:48:59;5.80;;;2.05;;
58756;SDS011;44527;47.460;19.016;2023-03-21T11:52:40;6.97;;;2.03;;
58756;SDS011;44527;47.460;19.016;2023-03-21T12:05:36;3.28;;;1.40;;
58756;SDS011;44527;47.460;19.016;2023-03-21T12:22:40;3.05;;;1.50;;
58756;SDS011;44527;47.460;19.016;2023-03-21T12:29:27;6.45;;;2.22;;
58756;SDS011;44527;47.460;19.016;2023-03-21T12:46:02;4.68;;;2.17;;
58756;SDS011;44527;47.460;19.016;2023-03-21T12:49:14;3.20;;;1.75;;
58756;SDS011;44527;47.460;19.016;2023-03-21T12:52:36;4.85;;;2.00;;
58756;SDS011;44527;47.460;19.016;2023-03-21T12:55:42;6.95;;;2.67;;
58756;SDS011;44527;47.460;19.016;2023-03-21T12:58:57;5.37;;;3.15;;
58756;SDS011;44527;47.460;19.016;2023-03-21T13:02:17;5.80;;;2.92;;
58756;SDS011;44527;47.460;19.016;2023-03-21T13:05:49;2.72;;;2.10;;
58756;SDS011;44527;47.460;19.016;2023-03-21T13:19:27;3.10;;;1.92;;
58756;SDS011;44527;47.460;19.016;2023-03-21T13:22:49;3.42;;;1.87;;
58756;SDS011;44527;47.460;19.016;2023-03-21T13:25:53;10.38;;;2.53;;
58756;SDS011;44527;47.460;19.016;2023-03-21T13:28:58;2.92;;;2.00;;
58756;SDS011;44527;47.460;19.016;2023-03-21T13:32:06;2.80;;;1.87;;
58756;SDS011;44527;47.460;19.016;2023-03-21T13:35:24;2.70;;;1.65;;
58756;SDS011;44527;47.460;19.016;2023-03-21T13:38:36;2.87;;;1.55;;
58756;SDS011;44527;47.460;19.016;2023-03-21T13:41:41;2.50;;;1.42;;
58756;SDS011;44527;47.460;19.016;2023-03-21T13:44:49;3.35;;;1.60;;
58756;SDS011;44527;47.460;19.016;2023-03-21T13:47:58;2.05;;;1.33;;
58756;SDS011;44527;47.460;19.016;2023-03-21T13:51:05;4.33;;;2.00;;
58756;SDS011;44527;47.460;19.016;2023-03-21T13:57:20;3.55;;;1.80;;
58756;SDS011;44527;47.460;19.016;2023-03-21T14:00:37;3.47;;;1.55;;
58756;SDS011;44527;47.460;19.016;2023-03-21T14:03:41;2.45;;;1.40;;
58756;SDS011;44527;47.460;19.016;2023-03-21T14:06:49;3.10;;;1.40;;
58756;SDS011;44527;47.460;19.016;2023-03-21T14:09:58;3.35;;;1.73;;
58756;SDS011;44527;47.460;19.016;2023-03-21T14:13:07;1.95;;;1.10;;
58756;SDS011;44527;47.460;19.016;2023-03-21T14:16:17;5.18;;;1.52;;
58756;SDS011;44527;47.460;19.016;2023-03-21T14:19:29;2.97;;;1.70;;
58756;SDS011;44527;47.460;19.016;2023-03-21T14:22:34;2.72;;;1.40;;
58756;SDS011;44527;47.460;19.016;2023-03-21T14:25:36;6.65;;;1.40;;
58756;SDS011;44527;47.460;19.016;2023-03-21T14:28:50;5.18;;;1.37;;
58756;SDS011;44527;47.460;19.016;2023-03-21T14:31:54;4.05;;;1.50;;
58756;SDS011;44527;47.460;19.016;2023-03-21T14:34:58;2.97;;;1.15;;
58756;SDS011;44527;47.460;19.016;2023-03-21T14:38:05;2.85;;;1.52;;
58756;SDS011;44527;47.460;19.016;2023-03-21T14:41:20;9.35;;;1.55;;
58756;SDS011;44527;47.460;19.016;2023-03-21T14:44:40;3.20;;;1.30;;
58756;SDS011;44527;47.460;19.016;2023-03-21T14:51:09;5.20;;;1.80;;
58756;SDS011;44527;47.460;19.016;2023-03-21T14:54:14;3.70;;;1.60;;
58756;SDS011;44527;47.460;19.016;2023-03-21T14:57:25;3.37;;;1.60;;
58756;SDS011;44527;47.460;19.016;2023-03-21T15:00:30;3.47;;;1.55;;
58756;SDS011;44527;47.460;19.016;2023-03-21T15:03:33;3.17;;;1.65;;
58756;SDS011;44527;47.460;19.016;2023-03-21T15:06:47;2.72;;;1.90;;
58756;SDS011;44527;47.460;19.016;2023-03-21T15:09:55;2.72;;;1.73;;
58756;SDS011;44527;47.460;19.016;2023-03-21T15:16:03;4.05;;;1.80;;
58756;SDS011;44527;47.460;19.016;2023-03-21T15:19:06;4.15;;;1.48;;
58756;SDS011;44527;47.460;19.016;2023-03-21T15:25:22;2.15;;;1.52;;
58756;SDS011;44527;47.460;19.016;2023-03-21T15:28:28;2.63;;;1.60;;
58756;SDS011;44527;47.460;19.016;2023-03-21T15:31:35;6.47;;;2.00;;
58756;SDS011;44527;47.460;19.016;2023-03-21T15:34:41;7.57;;;1.90;;
58756;SDS011;44527;47.460;19.016;2023-03-21T15:37:50;3.40;;;1.95;;
58756;SDS011;44527;47.460;19.016;2023-03-21T15:44:22;3.45;;;2.17;;
58756;SDS011;44527;47.460;19.016;2023-03-21T15:47:34;5.85;;;2.50;;
58756;SDS011;44527;47.460;19.016;2023-03-21T15:51:04;3.37;;;2.40;;
58756;SDS011;44527;47.460;19.016;2023-03-21T15:54:12;5.93;;;2.62;;
58756;SDS011;44527;47.460;19.016;2023-03-21T15:57:25;6.80;;;2.67;;
58756;SDS011;44527;47.460;19.016;2023-03-21T16:00:40;3.97;;;2.37;;
58756;SDS011;44527;47.460;19.016;2023-03-21T16:03:55;9.95;;;2.95;;
58756;SDS011;44527;47.460;19.016;2023-03-21T16:07:00;5.65;;;2.70;;
58756;SDS011;44527;47.460;19.016;2023-03-21T16:10:13;4.72;;;2.92;;
58756;SDS011;44527;47.460;19.016;2023-03-21T16:13:27;7.22;;;2.65;;
58756;SDS011;44527;47.460;19.016;2023-03-21T16:16:30;7.43;;;2.58;;
58756;SDS011;44527;47.460;19.016;2023-03-21T16:19:32;5.10;;;2.97;;
58756;SDS011;44527;47.460;19.016;2023-03-21T16:22:35;6.35;;;2.75;;
58756;SDS011;44527;47.460;19.016;2023-03-21T16:25:37;4.22;;;2.30;;
58756;SDS011;44527;47.460;19.016;2023-03-21T16:28:41;4.03;;;2.80;;
58756;SDS011;44527;47.460;19.016;2023-03-21T16:31:46;5.45;;;2.37;;
58756;SDS011;44527;47.460;19.016;2023-03-21T16:34:49;4.37;;;2.60;;
58756;SDS011;44527;47.460;19.016;2023-03-21T16:37:54;4.25;;;2.62;;
58756;SDS011;44527;47.460;19.016;2023-03-21T16:40:57;3.97;;;2.60;;
58756;SDS011;44527;47.460;19.016;2023-03-21T16:43:59;6.68;;;2.97;;
58756;SDS011;44527;47.460;19.016;2023-03-21T16:47:03;6.53;;;2.92;;
58756;SDS011;44527;47.460;19.016;2023-03-21T16:50:17;7.07;;;2.58;;
58756;SDS011;44527;47.460;19.016;2023-03-21T16:53:21;6.07;;;2.50;;
58756;SDS011;44527;47.460;19.016;2023-03-21T16:59:31;8.50;;;2.93;;
58756;SDS011;44527;47.460;19.016;2023-03-21T17:02:33;7.22;;;2.95;;
58756;SDS011;44527;47.460;19.016;2023-03-21T17:05:35;9.73;;;2.90;;
58756;SDS011;44527;47.460;19.016;2023-03-21T17:08:38;6.18;;;3.40;;
58756;SDS011;44527;47.460;19.016;2023-03-21T17:11:40;5.28;;;3.20;;
58756;SDS011;44527;47.460;19.016;2023-03-21T17:14:43;5.03;;;3.05;;
58756;SDS011;44527;47.460;19.016;2023-03-21T17:17:46;10.93;;;4.90;;
58756;SDS011;44527;47.460;19.016;2023-03-21T17:20:52;6.30;;;3.72;;
58756;SDS011;44527;47.460;19.016;2023-03-21T17:23:55;5.55;;;3.42;;
58756;SDS011;44527;47.460;19.016;2023-03-21T17:26:58;5.07;;;3.05;;
58756;SDS011;44527;47.460;19.016;2023-03-21T17:30:02;6.35;;;2.90;;
58756;SDS011;44527;47.460;19.016;2023-03-21T17:33:12;4.70;;;2.65;;
58756;SDS011;44527;47.460;19.016;2023-03-21T17:36:17;5.32;;;2.90;;
58756;SDS011;44527;47.460;19.016;2023-03-21T17:39:23;5.00;;;3.03;;
58756;SDS011;44527;47.460;19.016;2023-03-21T17:42:27;5.82;;;3.15;;
58756;SDS011;44527;47.460;19.016;2023-03-21T17:45:29;8.20;;;3.45;;
58756;SDS011;44527;47.460;19.016;2023-03-21T17:48:32;16.98;;;5.85;;
58756;SDS011;44527;47.460;19.016;2023-03-21T17:51:34;11.70;;;5.40;;
58756;SDS011;44527;47.460;19.016;2023-03-21T17:54:37;11.82;;;5.03;;
58756;SDS011;44527;47.460;19.016;2023-03-21T17:57:39;12.52;;;4.90;;
58756;SDS011;44527;47.460;19.016;2023-03-21T18:00:42;9.30;;;4.70;;
58756;SDS011;44527;47.460;19.016;2023-03-21T18:03:48;8.88;;;4.32;;
58756;SDS011;44527;47.460;19.016;2023-03-21T18:06:50;11.02;;;4.37;;
58756;SDS011;44527;47.460;19.016;2023-03-21T18:09:55;7.90;;;4.68;;
58756;SDS011;44527;47.460;19.016;2023-03-21T18:12:58;18.25;;;6.80;;
58756;SDS011;44527;47.460;19.016;2023-03-21T18:16:01;6.90;;;4.28;;
58756;SDS011;44527;47.460;19.016;2023-03-21T18:19:03;6.10;;;3.83;;
58756;SDS011;44527;47.460;19.016;2023-03-21T18:22:06;9.10;;;4.43;;
58756;SDS011;44527;47.460;19.016;2023-03-21T18:25:08;6.47;;;3.55;;
58756;SDS011;44527;47.460;19.016;2023-03-21T18:28:11;9.90;;;4.28;;
58756;SDS011;44527;47.460;19.016;2023-03-21T18:31:16;10.93;;;4.45;;
58756;SDS011;44527;47.460;19.016;2023-03-21T18:34:21;7.15;;;3.83;;
58756;SDS011;44527;47.460;19.016;2023-03-21T18:37:24;11.70;;;4.00;;
58756;SDS011;44527;47.460;19.016;2023-03-21T18:40:27;7.78;;;3.90;;
58756;SDS011;44527;47.460;19.016;2023-03-21T18:43:29;6.68;;;3.50;;
58756;SDS011;44527;47.460;19.016;2023-03-21T18:46:52;12.77;;;4.50;;
58756;SDS011;44527;47.460;19.016;2023-03-21T18:49:54;5.68;;;3.10;;
58756;SDS011;44527;47.460;19.016;2023-03-21T18:53:16;6.30;;;3.22;;
58756;SDS011;44527;47.460;19.016;2023-03-21T18:56:18;6.90;;;3.40;;
58756;SDS011;44527;47.460;19.016;2023-03-21T18:59:41;5.57;;;3.47;;
58756;SDS011;44527;47.460;19.016;2023-03-21T19:02:44;6.57;;;3.20;;
58756;SDS011;44527;47.460;19.016;2023-03-21T19:05:49;7.97;;;3.80;;
58756;SDS011;44527;47.460;19.016;2023-03-21T19:08:52;5.85;;;3.22;;
58756;SDS011;44527;47.460;19.016;2023-03-21T19:11:54;6.62;;;3.67;;
58756;SDS011;44527;47.460;19.016;2023-03-21T19:14:58;5.97;;;2.92;;
58756;SDS011;44527;47.460;19.016;2023-03-21T19:18:00;5.87;;;3.35;;
58756;SDS011;44527;47.460;19.016;2023-03-21T19:21:23;6.10;;;3.17;;
58756;SDS011;44527;47.460;19.016;2023-03-21T19:24:26;8.48;;;3.47;;
58756;SDS011;44527;47.460;19.016;2023-03-21T19:27:30;5.70;;;3.47;;
58756;SDS011;44527;47.460;19.016;2023-03-21T19:30:35;7.90;;;3.97;;
58756;SDS011;44527;47.460;19.016;2023-03-21T19:33:37;7.70;;;3.65;;
58756;SDS011;44527;47.460;19.016;2023-03-21T19:36:40;6.22;;;3.75;;
58756;SDS011;44527;47.460;19.016;2023-03-21T19:39:50;8.45;;;3.80;;
58756;SDS011;44527;47.460;19.016;2023-03-21T19:42:52;9.50;;;3.37;;
58756;SDS011;44527;47.460;19.016;2023-03-21T19:45:55;8.00;;;3.87;;
58756;SDS011;44527;47.460;19.016;2023-03-21T19:49:04;9.45;;;3.40;;
58756;SDS011;44527;47.460;19.016;2023-03-21T19:52:07;6.93;;;3.33;;
58756;SDS011;44527;47.460;19.016;2023-03-21T19:55:10;6.85;;;3.78;;
58756;SDS011;44527;47.460;19.016;2023-03-21T19:58:15;5.22;;;2.97;;
58756;SDS011;44527;47.460;19.016;2023-03-21T20:01:23;7.68;;;3.72;;
58756;SDS011;44527;47.460;19.016;2023-03-21T20:04:26;8.13;;;3.85;;
58756;SDS011;44527;47.460;19.016;2023-03-21T20:07:29;6.78;;;3.03;;
58756;SDS011;44527;47.460;19.016;2023-03-21T20:10:34;6.62;;;3.53;;
58756;SDS011;44527;47.460;19.016;2023-03-21T20:13:37;6.28;;;3.47;;
58756;SDS011;44527;47.460;19.016;2023-03-21T20:16:39;6.00;;;3.00;;
58756;SDS011;44527;47.460;19.016;2023-03-21T20:19:44;7.28;;;3.78;;
58756;SDS011;44527;47.460;19.016;2023-03-21T20:22:47;6.15;;;3.70;;
58756;SDS011;44527;47.460;19.016;2023-03-21T20:26:09;9.00;;;3.95;;
58756;SDS011;44527;47.460;19.016;2023-03-21T20:29:14;5.78;;;3.53;;
58756;SDS011;44527;47.460;19.016;2023-03-21T20:32:40;5.47;;;3.42;;